Time;durP1;ratioP1;P1;durP2;ratioP2;P2;SDS_P1;SDS_P2;PMS_P1;PMS_P2;Temp;Humidity;BMP_temperature;BMP_pressure;BME280_temperature;BME280_humidity;BME280_pressure;Samples;Min_cycle;Max_cycle;Signal;HPM_P1;HPM_P2
2019/10/10 00:00:04;;;;;;;2.5;2.05;;;;;;;9.54;100;95104.64;;;;
2019/10/10 00:01:05;;;;;;;2.5;2.05;;;;;;;9.54;100;95104.64;;;;
2019/10/10 00:02:07;;;;;;;2.5;2.05;;;;;;;9.54;100;95104.64;;;;
2019/10/10 00:03:08;;;;;;;2.5;2.05;;;;;;;9.54;100;95104.64;;;;
2019/10/10 00:04:09;;;;;;;2.5;2.05;;;;;;;9.54;100;95104.64;;;;
2019/10/10 00:05:11;;;;;;;2.5;2.05;;;;;;;9.54;100;95104.64;;;;
2019/10/10 00:06:12;;;;;;;2.3;2.1;;;;;;;9.55;100;95109.52;;;;
2019/10/10 00:07:14;;;;;;;2.3;2.1;;;;;;;9.55;100;95109.52;;;;
2019/10/10 00:08:15;;;;;;;2.3;2.1;;;;;;;9.55;100;95109.52;;;;
2019/10/10 00:09:16;;;;;;;2.3;2.1;;;;;;;9.55;100;95109.52;;;;
2019/10/10 00:10:19;;;;;;;2.3;2.1;;;;;;;9.55;100;95109.52;;;;
2019/10/10 00:11:20;;;;;;;2.3;2.1;;;;;;;9.55;100;95109.52;;;;
2019/10/10 00:12:21;;;;;;;2.3;2.1;;;;;;;9.55;100;95109.52;;;;
2019/10/10 00:13:22;;;;;;;2.3;2.1;;;;;;;9.55;100;95109.52;;;;
2019/10/10 00:14:24;;;;;;;2.3;2.1;;;;;;;9.55;100;95109.52;;;;
2019/10/10 00:15:25;;;;;;;2.3;2.1;;;;;;;9.55;100;95109.52;;;;
2019/10/10 00:16:38;;;;;;;2.65;2.2;;;;;;;9.42;100;95112.33;;;;
2019/10/10 00:17:39;;;;;;;2.65;2.2;;;;;;;9.42;100;95112.33;;;;
2019/10/10 00:18:40;;;;;;;2.65;2.2;;;;;;;9.42;100;95112.33;;;;
2019/10/10 00:19:41;;;;;;;2.65;2.2;;;;;;;9.42;100;95112.33;;;;
2019/10/10 00:20:42;;;;;;;2.65;2.2;;;;;;;9.42;100;95112.33;;;;
2019/10/10 00:21:44;;;;;;;2.65;2.2;;;;;;;9.42;100;95112.33;;;;
2019/10/10 00:22:45;;;;;;;2.65;2.2;;;;;;;9.42;100;95112.33;;;;
2019/10/10 00:24:06;;;;;;;2.65;2.2;;;;;;;9.42;100;95112.33;;;;
2019/10/10 00:25:07;;;;;;;2.65;2.2;;;;;;;9.42;100;95112.33;;;;
2019/10/10 00:26:31;;;;;;;2.6;1.9;;;;;;;9.38;100;95112.48;;;;
2019/10/10 00:27:33;;;;;;;2.6;1.9;;;;;;;9.38;100;95112.48;;;;
2019/10/10 00:28:45;;;;;;;2.6;1.9;;;;;;;9.38;100;95112.48;;;;
2019/10/10 00:29:47;;;;;;;2.6;1.9;;;;;;;9.38;100;95112.48;;;;
2019/10/10 00:30:48;;;;;;;2.6;1.9;;;;;;;9.38;100;95112.48;;;;
2019/10/10 00:31:49;;;;;;;2.6;1.9;;;;;;;9.38;100;95112.48;;;;
2019/10/10 00:32:50;;;;;;;2.6;1.9;;;;;;;9.38;100;95112.48;;;;
2019/10/10 00:33:51;;;;;;;2.6;1.9;;;;;;;9.38;100;95112.48;;;;
2019/10/10 00:34:53;;;;;;;2.6;1.9;;;;;;;9.38;100;95112.48;;;;
2019/10/10 00:35:54;;;;;;;2.6;1.9;;;;;;;9.38;100;95112.48;;;;
2019/10/10 00:36:57;;;;;;;2.6;1.9;;;;;;;9.38;100;95112.48;;;;
2019/10/10 00:37:58;;;;;;;4.3;1.7;;;;;;;9.24;100;95117.8;;;;
2019/10/10 00:38:59;;;;;;;4.3;1.7;;;;;;;9.24;100;95117.8;;;;
2019/10/10 00:40:00;;;;;;;4.3;1.7;;;;;;;9.24;100;95117.8;;;;
2019/10/10 00:41:01;;;;;;;4.3;1.7;;;;;;;9.24;100;95117.8;;;;
2019/10/10 00:42:03;;;;;;;4.3;1.7;;;;;;;9.24;100;95117.8;;;;
2019/10/10 00:43:04;;;;;;;4.3;1.7;;;;;;;9.24;100;95117.8;;;;
2019/10/10 00:44:05;;;;;;;4.3;1.7;;;;;;;9.24;100;95117.8;;;;
2019/10/10 00:45:06;;;;;;;4.3;1.7;;;;;;;9.24;100;95117.8;;;;
2019/10/10 00:46:08;;;;;;;4.3;1.7;;;;;;;9.24;100;95117.8;;;;
2019/10/10 00:47:09;;;;;;;4.3;1.7;;;;;;;9.24;100;95117.8;;;;
2019/10/10 00:48:10;;;;;;;1.7;1.4;;;;;;;9.21;100;95115.13;;;;
2019/10/10 00:49:11;;;;;;;1.7;1.4;;;;;;;9.21;100;95115.13;;;;
2019/10/10 00:50:13;;;;;;;1.7;1.4;;;;;;;9.21;100;95115.13;;;;
2019/10/10 00:51:14;;;;;;;1.7;1.4;;;;;;;9.21;100;95115.13;;;;
2019/10/10 00:52:15;;;;;;;1.7;1.4;;;;;;;9.21;100;95115.13;;;;
2019/10/10 00:53:16;;;;;;;1.7;1.4;;;;;;;9.21;100;95115.13;;;;
2019/10/10 00:54:17;;;;;;;1.7;1.4;;;;;;;9.21;100;95115.13;;;;
2019/10/10 00:55:18;;;;;;;1.7;1.4;;;;;;;9.21;100;95115.13;;;;
2019/10/10 00:56:19;;;;;;;1.7;1.4;;;;;;;9.21;100;95115.13;;;;
2019/10/10 00:57:21;;;;;;;1.7;1.4;;;;;;;9.21;100;95115.13;;;;
2019/10/10 00:58:22;;;;;;;1.5;1.4;;;;;;;9.04;100;95102.47;;;;
2019/10/10 00:59:23;;;;;;;1.5;1.4;;;;;;;9.04;100;95102.47;;;;
2019/10/10 01:00:24;;;;;;;1.5;1.4;;;;;;;9.04;100;95102.47;;;;
2019/10/10 01:01:25;;;;;;;1.5;1.4;;;;;;;9.04;100;95102.47;;;;
2019/10/10 01:02:27;;;;;;;1.5;1.4;;;;;;;9.04;100;95102.47;;;;
2019/10/10 01:03:28;;;;;;;1.5;1.4;;;;;;;9.04;100;95102.47;;;;
2019/10/10 01:04:29;;;;;;;1.5;1.4;;;;;;;9.04;100;95102.47;;;;
2019/10/10 01:05:31;;;;;;;1.5;1.4;;;;;;;9.04;100;95102.47;;;;
2019/10/10 01:06:32;;;;;;;1.5;1.4;;;;;;;9.04;100;95102.47;;;;
2019/10/10 01:07:33;;;;;;;1.5;1.4;;;;;;;9.04;100;95102.47;;;;
2019/10/10 01:08:34;;;;;;;1.5;1.4;;;;;;;9.04;100;95102.47;;;;
2019/10/10 01:09:35;;;;;;;2.45;1.3;;;;;;;8.85;100;95093.22;;;;
2019/10/10 01:10:36;;;;;;;2.45;1.3;;;;;;;8.85;100;95093.22;;;;
2019/10/10 01:11:37;;;;;;;2.45;1.3;;;;;;;8.85;100;95093.22;;;;
2019/10/10 01:12:39;;;;;;;2.45;1.3;;;;;;;8.85;100;95093.22;;;;
2019/10/10 01:13:40;;;;;;;2.45;1.3;;;;;;;8.85;100;95093.22;;;;
2019/10/10 01:14:42;;;;;;;2.45;1.3;;;;;;;8.85;100;95093.22;;;;
2019/10/10 01:15:45;;;;;;;2.45;1.3;;;;;;;8.85;100;95093.22;;;;
2019/10/10 01:16:47;;;;;;;2.45;1.3;;;;;;;8.85;100;95093.22;;;;
2019/10/10 01:17:48;;;;;;;2.45;1.3;;;;;;;8.85;100;95093.22;;;;
2019/10/10 01:18:49;;;;;;;2.45;1.3;;;;;;;8.85;100;95093.22;;;;
2019/10/10 01:19:51;;;;;;;2.800001;1.35;;;;;;;8.7;100;95096.98;;;;
2019/10/10 01:20:52;;;;;;;2.800001;1.35;;;;;;;8.7;100;95096.98;;;;
2019/10/10 01:21:53;;;;;;;2.800001;1.35;;;;;;;8.7;100;95096.98;;;;
2019/10/10 01:22:54;;;;;;;2.800001;1.35;;;;;;;8.7;100;95096.98;;;;
2019/10/10 01:23:55;;;;;;;2.800001;1.35;;;;;;;8.7;100;95096.98;;;;
2019/10/10 01:24:57;;;;;;;2.800001;1.35;;;;;;;8.7;100;95096.98;;;;
2019/10/10 01:25:58;;;;;;;2.800001;1.35;;;;;;;8.7;100;95096.98;;;;
2019/10/10 01:26:59;;;;;;;2.800001;1.35;;;;;;;8.7;100;95096.98;;;;
2019/10/10 01:28:00;;;;;;;2.800001;1.35;;;;;;;8.7;100;95096.98;;;;
2019/10/10 01:29:02;;;;;;;2.800001;1.35;;;;;;;8.7;100;95096.98;;;;
2019/10/10 01:30:03;;;;;;;2.800001;1.35;;;;;;;8.7;100;95096.98;;;;
2019/10/10 01:31:04;;;;;;;3.5;1.5;;;;;;;8.63;100;95107.84;;;;
2019/10/10 01:32:06;;;;;;;3.5;1.5;;;;;;;8.63;100;95107.84;;;;
2019/10/10 01:33:07;;;;;;;3.5;1.5;;;;;;;8.63;100;95107.84;;;;
2019/10/10 01:34:10;;;;;;;3.5;1.5;;;;;;;8.63;100;95107.84;;;;
2019/10/10 01:35:11;;;;;;;3.5;1.5;;;;;;;8.63;100;95107.84;;;;
2019/10/10 01:36:12;;;;;;;3.5;1.5;;;;;;;8.63;100;95107.84;;;;
2019/10/10 01:37:14;;;;;;;3.5;1.5;;;;;;;8.63;100;95107.84;;;;
2019/10/10 01:38:15;;;;;;;3.5;1.5;;;;;;;8.63;100;95107.84;;;;
2019/10/10 01:39:16;;;;;;;3.5;1.5;;;;;;;8.63;100;95107.84;;;;
2019/10/10 01:40:18;;;;;;;3.5;1.5;;;;;;;8.63;100;95107.84;;;;
2019/10/10 01:41:19;;;;;;;1.65;1.1;;;;;;;8.48;100;95120.45;;;;
2019/10/10 01:42:20;;;;;;;1.65;1.1;;;;;;;8.48;100;95120.45;;;;
2019/10/10 01:43:22;;;;;;;1.65;1.1;;;;;;;8.48;100;95120.45;;;;
2019/10/10 01:44:23;;;;;;;1.65;1.1;;;;;;;8.48;100;95120.45;;;;
2019/10/10 01:45:25;;;;;;;1.65;1.1;;;;;;;8.48;100;95120.45;;;;
2019/10/10 01:46:26;;;;;;;1.65;1.1;;;;;;;8.48;100;95120.45;;;;
2019/10/10 01:47:27;;;;;;;1.65;1.1;;;;;;;8.48;100;95120.45;;;;
2019/10/10 01:48:28;;;;;;;1.65;1.1;;;;;;;8.48;100;95120.45;;;;
2019/10/10 01:49:30;;;;;;;1.65;1.1;;;;;;;8.48;100;95120.45;;;;
2019/10/10 01:50:31;;;;;;;1.65;1.1;;;;;;;8.48;100;95120.45;;;;
2019/10/10 01:51:32;;;;;;;1.85;1.1;;;;;;;8.42;100;95102.42;;;;
2019/10/10 01:52:33;;;;;;;1.85;1.1;;;;;;;8.42;100;95102.42;;;;
2019/10/10 01:53:34;;;;;;;1.85;1.1;;;;;;;8.42;100;95102.42;;;;
2019/10/10 01:54:36;;;;;;;1.85;1.1;;;;;;;8.42;100;95102.42;;;;
2019/10/10 02:00:12;;;;;;;1.85;1.1;;;;;;;8.42;100;95102.42;;;;
2019/10/10 02:02:10;;;;;;;2.75;1.4;;;;;;;8.42;100;95118.14;;;;
2019/10/10 02:04:30;;;;;;;2.75;1.4;;;;;;;8.42;100;95118.14;;;;
2019/10/10 02:05:32;;;;;;;2.75;1.4;;;;;;;8.42;100;95118.14;;;;
2019/10/10 02:06:50;;;;;;;2.75;1.4;;;;;;;8.42;100;95118.14;;;;
2019/10/10 02:07:51;;;;;;;2.75;1.4;;;;;;;8.42;100;95118.14;;;;
2019/10/10 02:08:52;;;;;;;2.75;1.4;;;;;;;8.42;100;95118.14;;;;
2019/10/10 02:09:54;;;;;;;2.75;1.4;;;;;;;8.42;100;95118.14;;;;
2019/10/10 02:11:02;;;;;;;2.75;1.4;;;;;;;8.42;100;95118.14;;;;
2019/10/10 02:12:04;;;;;;;2.75;1.4;;;;;;;8.42;100;95118.14;;;;
2019/10/10 02:13:05;;;;;;;1.85;1.2;;;;;;;8.49;100;95114.04;;;;
2019/10/10 02:15:10;;;;;;;1.85;1.2;;;;;;;8.49;100;95114.04;;;;
2019/10/10 02:18:46;;;;;;;1.85;1.2;;;;;;;8.49;100;95114.04;;;;
2019/10/10 02:22:17;;;;;;;1.85;1.2;;;;;;;8.49;100;95114.04;;;;
2019/10/10 02:23:18;;;;;;;2.1;1.3;;;;;;;8.52;100;95126.1;;;;
2019/10/10 02:24:19;;;;;;;2.1;1.3;;;;;;;8.52;100;95126.1;;;;
2019/10/10 02:25:22;;;;;;;2.1;1.3;;;;;;;8.52;100;95126.1;;;;
2019/10/10 02:26:23;;;;;;;2.1;1.3;;;;;;;8.52;100;95126.1;;;;
2019/10/10 02:27:24;;;;;;;2.1;1.3;;;;;;;8.52;100;95126.1;;;;
2019/10/10 02:28:25;;;;;;;2.1;1.3;;;;;;;8.52;100;95126.1;;;;
2019/10/10 02:29:27;;;;;;;2.1;1.3;;;;;;;8.52;100;95126.1;;;;
2019/10/10 02:30:29;;;;;;;2.1;1.3;;;;;;;8.52;100;95126.1;;;;
2019/10/10 02:31:30;;;;;;;2.1;1.3;;;;;;;8.52;100;95126.1;;;;
2019/10/10 02:32:31;;;;;;;2.1;1.3;;;;;;;8.52;100;95126.1;;;;
2019/10/10 02:33:33;;;;;;;2.1;1.3;;;;;;;8.52;100;95126.1;;;;
2019/10/10 02:34:34;;;;;;;1.6;1.3;;;;;;;8.65;100;95129.97;;;;
2019/10/10 02:35:35;;;;;;;1.6;1.3;;;;;;;8.65;100;95129.97;;;;
2019/10/10 02:36:36;;;;;;;1.6;1.3;;;;;;;8.65;100;95129.97;;;;
2019/10/10 02:37:38;;;;;;;1.6;1.3;;;;;;;8.65;100;95129.97;;;;
2019/10/10 02:38:39;;;;;;;1.6;1.3;;;;;;;8.65;100;95129.97;;;;
2019/10/10 02:39:40;;;;;;;1.6;1.3;;;;;;;8.65;100;95129.97;;;;
2019/10/10 02:43:11;;;;;;;1.6;1.3;;;;;;;8.65;100;95129.97;;;;
2019/10/10 02:44:12;;;;;;;1.6;1.3;;;;;;;8.65;100;95129.97;;;;
2019/10/10 02:45:58;;;;;;;4.3;1.3;;;;;;;8.66;100;95129.33;;;;
2019/10/10 02:46:59;;;;;;;4.3;1.3;;;;;;;8.66;100;95129.33;;;;
2019/10/10 02:48:00;;;;;;;4.3;1.3;;;;;;;8.66;100;95129.33;;;;
2019/10/10 02:49:01;;;;;;;4.3;1.3;;;;;;;8.66;100;95129.33;;;;
2019/10/10 02:50:04;;;;;;;4.3;1.3;;;;;;;8.66;100;95129.33;;;;
2019/10/10 02:51:06;;;;;;;4.3;1.3;;;;;;;8.66;100;95129.33;;;;
2019/10/10 02:52:07;;;;;;;4.3;1.3;;;;;;;8.66;100;95129.33;;;;
2019/10/10 02:53:08;;;;;;;4.3;1.3;;;;;;;8.66;100;95129.33;;;;
2019/10/10 02:54:09;;;;;;;4.3;1.3;;;;;;;8.66;100;95129.33;;;;
2019/10/10 02:55:10;;;;;;;4.15;1.4;;;;;;;8.78;100;95135.71;;;;
2019/10/10 02:57:02;;;;;;;4.15;1.4;;;;;;;8.78;100;95135.71;;;;
2019/10/10 02:58:08;;;;;;;4.15;1.4;;;;;;;8.78;100;95135.71;;;;
2019/10/10 03:02:49;;;;;;;4.15;1.4;;;;;;;8.78;100;95135.71;;;;
2019/10/10 03:03:51;;;;;;;4.15;1.4;;;;;;;8.78;100;95135.71;;;;
2019/10/10 03:04:52;;;;;;;4.15;1.4;;;;;;;8.78;100;95135.71;;;;
2019/10/10 03:05:53;;;;;;;2.6;1.3;;;;;;;8.8;100;95134.81;;;;
2019/10/10 03:06:54;;;;;;;2.6;1.3;;;;;;;8.8;100;95134.81;;;;
2019/10/10 03:07:55;;;;;;;2.6;1.3;;;;;;;8.8;100;95134.81;;;;
2019/10/10 03:08:57;;;;;;;2.6;1.3;;;;;;;8.8;100;95134.81;;;;
2019/10/10 03:11:01;;;;;;;2.6;1.3;;;;;;;8.8;100;95134.81;;;;
2019/10/10 03:12:02;;;;;;;2.6;1.3;;;;;;;8.8;100;95134.81;;;;
2019/10/10 03:14:06;;;;;;;2.6;1.3;;;;;;;8.8;100;95134.81;;;;
2019/10/10 03:15:07;;;;;;;2.6;1.3;;;;;;;8.8;100;95134.81;;;;
2019/10/10 03:17:34;;;;;;;3.55;1.35;;;;;;;8.78;100;95139.18;;;;
2019/10/10 03:18:35;;;;;;;3.55;1.35;;;;;;;8.78;100;95139.18;;;;
2019/10/10 03:19:52;;;;;;;3.55;1.35;;;;;;;8.78;100;95139.18;;;;
2019/10/10 03:20:53;;;;;;;3.55;1.35;;;;;;;8.78;100;95139.18;;;;
2019/10/10 03:21:54;;;;;;;3.55;1.35;;;;;;;8.78;100;95139.18;;;;
2019/10/10 03:22:55;;;;;;;3.55;1.35;;;;;;;8.78;100;95139.18;;;;
2019/10/10 03:23:57;;;;;;;3.55;1.35;;;;;;;8.78;100;95139.18;;;;
2019/10/10 03:24:58;;;;;;;3.55;1.35;;;;;;;8.78;100;95139.18;;;;
2019/10/10 03:25:59;;;;;;;3.55;1.35;;;;;;;8.78;100;95139.18;;;;
2019/10/10 03:27:00;;;;;;;4.3;1.4;;;;;;;8.62;100;95137.55;;;;
2019/10/10 03:28:02;;;;;;;4.3;1.4;;;;;;;8.62;100;95137.55;;;;
2019/10/10 03:29:03;;;;;;;4.3;1.4;;;;;;;8.62;100;95137.55;;;;
2019/10/10 03:30:04;;;;;;;4.3;1.4;;;;;;;8.62;100;95137.55;;;;
2019/10/10 03:31:05;;;;;;;4.3;1.4;;;;;;;8.62;100;95137.55;;;;
2019/10/10 03:32:06;;;;;;;4.3;1.4;;;;;;;8.62;100;95137.55;;;;
2019/10/10 03:33:08;;;;;;;4.3;1.4;;;;;;;8.62;100;95137.55;;;;
2019/10/10 03:34:09;;;;;;;4.3;1.4;;;;;;;8.62;100;95137.55;;;;
2019/10/10 03:35:11;;;;;;;4.3;1.4;;;;;;;8.62;100;95137.55;;;;
2019/10/10 03:36:12;;;;;;;4.3;1.4;;;;;;;8.62;100;95137.55;;;;
2019/10/10 03:37:13;;;;;;;4.3;1.4;;;;;;;8.62;100;95137.55;;;;
2019/10/10 03:38:14;;;;;;;2.1;1.45;;;;;;;8.62;100;95128.13;;;;
2019/10/10 03:39:15;;;;;;;2.1;1.45;;;;;;;8.62;100;95128.13;;;;
2019/10/10 03:40:16;;;;;;;2.1;1.45;;;;;;;8.62;100;95128.13;;;;
2019/10/10 03:41:18;;;;;;;2.1;1.45;;;;;;;8.62;100;95128.13;;;;
2019/10/10 03:42:19;;;;;;;2.1;1.45;;;;;;;8.62;100;95128.13;;;;
2019/10/10 03:43:20;;;;;;;2.1;1.45;;;;;;;8.62;100;95128.13;;;;
2019/10/10 03:44:21;;;;;;;2.1;1.45;;;;;;;8.62;100;95128.13;;;;
2019/10/10 03:45:22;;;;;;;2.1;1.45;;;;;;;8.62;100;95128.13;;;;
2019/10/10 03:46:23;;;;;;;2.1;1.45;;;;;;;8.62;100;95128.13;;;;
2019/10/10 03:47:24;;;;;;;2.1;1.45;;;;;;;8.62;100;95128.13;;;;
2019/10/10 03:48:25;;;;;;;2.5;1.3;;;;;;;8.64;100;95131;;;;
2019/10/10 03:49:27;;;;;;;2.5;1.3;;;;;;;8.64;100;95131;;;;
2019/10/10 03:50:28;;;;;;;2.5;1.3;;;;;;;8.64;100;95131;;;;
2019/10/10 03:51:29;;;;;;;2.5;1.3;;;;;;;8.64;100;95131;;;;
2019/10/10 03:52:30;;;;;;;2.5;1.3;;;;;;;8.64;100;95131;;;;
2019/10/10 03:53:31;;;;;;;2.5;1.3;;;;;;;8.64;100;95131;;;;
2019/10/10 03:54:32;;;;;;;2.5;1.3;;;;;;;8.64;100;95131;;;;
2019/10/10 03:55:33;;;;;;;2.5;1.3;;;;;;;8.64;100;95131;;;;
2019/10/10 03:56:34;;;;;;;2.5;1.3;;;;;;;8.64;100;95131;;;;
2019/10/10 03:57:36;;;;;;;2.5;1.3;;;;;;;8.64;100;95131;;;;
2019/10/10 03:58:37;;;;;;;2.5;1.3;;;;;;;8.64;100;95131;;;;
2019/10/10 03:59:38;;;;;;;4.1;1.6;;;;;;;8.63;100;95143.25;;;;
2019/10/10 04:00:39;;;;;;;4.1;1.6;;;;;;;8.63;100;95143.25;;;;
2019/10/10 04:01:40;;;;;;;4.1;1.6;;;;;;;8.63;100;95143.25;;;;
2019/10/10 04:02:41;;;;;;;4.1;1.6;;;;;;;8.63;100;95143.25;;;;
2019/10/10 04:03:42;;;;;;;4.1;1.6;;;;;;;8.63;100;95143.25;;;;
2019/10/10 04:04:44;;;;;;;4.1;1.6;;;;;;;8.63;100;95143.25;;;;
2019/10/10 04:05:45;;;;;;;4.1;1.6;;;;;;;8.63;100;95143.25;;;;
2019/10/10 04:06:53;;;;;;;4.1;1.6;;;;;;;8.63;100;95143.25;;;;
2019/10/10 04:07:54;;;;;;;4.1;1.6;;;;;;;8.63;100;95143.25;;;;
2019/10/10 04:08:55;;;;;;;4.1;1.6;;;;;;;8.63;100;95143.25;;;;
2019/10/10 04:09:57;;;;;;;3.35;1.4;;;;;;;8.47;100;95158.76;;;;
2019/10/10 04:10:58;;;;;;;3.35;1.4;;;;;;;8.47;100;95158.76;;;;
2019/10/10 04:11:59;;;;;;;3.35;1.4;;;;;;;8.47;100;95158.76;;;;
2019/10/10 04:13:00;;;;;;;3.35;1.4;;;;;;;8.47;100;95158.76;;;;
2019/10/10 04:14:02;;;;;;;3.35;1.4;;;;;;;8.47;100;95158.76;;;;
2019/10/10 04:16:06;;;;;;;3.35;1.4;;;;;;;8.47;100;95158.76;;;;
2019/10/10 04:17:26;;;;;;;3.35;1.4;;;;;;;8.47;100;95158.76;;;;
2019/10/10 04:18:28;;;;;;;3.35;1.4;;;;;;;8.47;100;95158.76;;;;
2019/10/10 04:19:39;;;;;;;3.35;1.4;;;;;;;8.47;100;95158.76;;;;
2019/10/10 04:20:41;;;;;;;5.15;1.3;;;;;;;8.4;100;95138.26;;;;
2019/10/10 04:21:42;;;;;;;5.15;1.3;;;;;;;8.4;100;95138.26;;;;
2019/10/10 04:26:27;;;;;;;5.15;1.3;;;;;;;8.4;100;95138.26;;;;
2019/10/10 04:27:28;;;;;;;5.15;1.3;;;;;;;8.4;100;95138.26;;;;
2019/10/10 04:28:29;;;;;;;5.15;1.3;;;;;;;8.4;100;95138.26;;;;
2019/10/10 04:29:31;;;;;;;5.15;1.3;;;;;;;8.4;100;95138.26;;;;
2019/10/10 04:30:32;;;;;;;5.15;1.3;;;;;;;8.4;100;95138.26;;;;
2019/10/10 04:31:33;;;;;;;2.3;1.3;;;;;;;8.22;100;95145.76;;;;
2019/10/10 04:32:34;;;;;;;2.3;1.3;;;;;;;8.22;100;95145.76;;;;
2019/10/10 04:33:35;;;;;;;2.3;1.3;;;;;;;8.22;100;95145.76;;;;
2019/10/10 04:34:36;;;;;;;2.3;1.3;;;;;;;8.22;100;95145.76;;;;
2019/10/10 04:35:38;;;;;;;2.3;1.3;;;;;;;8.22;100;95145.76;;;;
2019/10/10 04:36:39;;;;;;;2.3;1.3;;;;;;;8.22;100;95145.76;;;;
2019/10/10 04:37:40;;;;;;;2.3;1.3;;;;;;;8.22;100;95145.76;;;;
2019/10/10 04:38:41;;;;;;;2.3;1.3;;;;;;;8.22;100;95145.76;;;;
2019/10/10 04:39:42;;;;;;;2.3;1.3;;;;;;;8.22;100;95145.76;;;;
2019/10/10 04:40:43;;;;;;;2.3;1.3;;;;;;;8.22;100;95145.76;;;;
2019/10/10 04:41:45;;;;;;;1.95;1.4;;;;;;;8.18;100;95136.11;;;;
2019/10/10 04:42:46;;;;;;;1.95;1.4;;;;;;;8.18;100;95136.11;;;;
2019/10/10 04:43:47;;;;;;;1.95;1.4;;;;;;;8.18;100;95136.11;;;;
2019/10/10 04:44:48;;;;;;;1.95;1.4;;;;;;;8.18;100;95136.11;;;;
2019/10/10 04:45:49;;;;;;;1.95;1.4;;;;;;;8.18;100;95136.11;;;;
2019/10/10 04:46:50;;;;;;;1.95;1.4;;;;;;;8.18;100;95136.11;;;;
2019/10/10 04:47:51;;;;;;;1.95;1.4;;;;;;;8.18;100;95136.11;;;;
2019/10/10 04:48:52;;;;;;;1.95;1.4;;;;;;;8.18;100;95136.11;;;;
2019/10/10 04:49:54;;;;;;;1.95;1.4;;;;;;;8.18;100;95136.11;;;;
2019/10/10 04:50:55;;;;;;;1.95;1.4;;;;;;;8.18;100;95136.11;;;;
2019/10/10 04:51:56;;;;;;;4.2;1.8;;;;;;;8.11;100;95153.78;;;;
2019/10/10 04:52:57;;;;;;;4.2;1.8;;;;;;;8.11;100;95153.78;;;;
2019/10/10 04:53:58;;;;;;;4.2;1.8;;;;;;;8.11;100;95153.78;;;;
2019/10/10 04:54:59;;;;;;;4.2;1.8;;;;;;;8.11;100;95153.78;;;;
2019/10/10 04:56:00;;;;;;;4.2;1.8;;;;;;;8.11;100;95153.78;;;;
2019/10/10 04:57:01;;;;;;;4.2;1.8;;;;;;;8.11;100;95153.78;;;;
2019/10/10 04:58:03;;;;;;;4.2;1.8;;;;;;;8.11;100;95153.78;;;;
2019/10/10 04:59:04;;;;;;;4.2;1.8;;;;;;;8.11;100;95153.78;;;;
2019/10/10 05:00:05;;;;;;;4.2;1.8;;;;;;;8.11;100;95153.78;;;;
2019/10/10 05:01:06;;;;;;;4.2;1.8;;;;;;;8.11;100;95153.78;;;;
2019/10/10 05:02:07;;;;;;;4.2;1.8;;;;;;;8.11;100;95153.78;;;;
2019/10/10 05:03:09;;;;;;;3;1.5;;;;;;;8.19;100;95152.95;;;;
2019/10/10 05:04:10;;;;;;;3;1.5;;;;;;;8.19;100;95152.95;;;;
2019/10/10 05:05:11;;;;;;;3;1.5;;;;;;;8.19;100;95152.95;;;;
2019/10/10 05:06:12;;;;;;;3;1.5;;;;;;;8.19;100;95152.95;;;;
2019/10/10 05:07:13;;;;;;;3;1.5;;;;;;;8.19;100;95152.95;;;;
2019/10/10 05:08:14;;;;;;;3;1.5;;;;;;;8.19;100;95152.95;;;;
2019/10/10 05:09:15;;;;;;;3;1.5;;;;;;;8.19;100;95152.95;;;;
2019/10/10 05:10:16;;;;;;;3;1.5;;;;;;;8.19;100;95152.95;;;;
2019/10/10 05:11:18;;;;;;;3;1.5;;;;;;;8.19;100;95152.95;;;;
2019/10/10 05:12:19;;;;;;;3;1.5;;;;;;;8.19;100;95152.95;;;;
2019/10/10 05:13:20;;;;;;;2.05;1.4;;;;;;;8.18;100;95139.73;;;;
2019/10/10 05:14:21;;;;;;;2.05;1.4;;;;;;;8.18;100;95139.73;;;;
2019/10/10 05:15:22;;;;;;;2.05;1.4;;;;;;;8.18;100;95139.73;;;;
2019/10/10 05:16:23;;;;;;;2.05;1.4;;;;;;;8.18;100;95139.73;;;;
2019/10/10 05:17:25;;;;;;;2.05;1.4;;;;;;;8.18;100;95139.73;;;;
2019/10/10 05:18:26;;;;;;;2.05;1.4;;;;;;;8.18;100;95139.73;;;;
2019/10/10 05:19:27;;;;;;;2.05;1.4;;;;;;;8.18;100;95139.73;;;;
2019/10/10 05:20:28;;;;;;;2.05;1.4;;;;;;;8.18;100;95139.73;;;;
2019/10/10 05:21:29;;;;;;;2.05;1.4;;;;;;;8.18;100;95139.73;;;;
2019/10/10 05:22:30;;;;;;;2.05;1.4;;;;;;;8.18;100;95139.73;;;;
2019/10/10 05:23:31;;;;;;;2.05;1.4;;;;;;;8.18;100;95139.73;;;;
2019/10/10 05:24:32;;;;;;;5.950001;1.5;;;;;;;8.22;100;95144.05;;;;
2019/10/10 05:25:34;;;;;;;5.950001;1.5;;;;;;;8.22;100;95144.05;;;;
2019/10/10 05:26:35;;;;;;;5.950001;1.5;;;;;;;8.22;100;95144.05;;;;
2019/10/10 05:27:36;;;;;;;5.950001;1.5;;;;;;;8.22;100;95144.05;;;;
2019/10/10 05:28:37;;;;;;;5.950001;1.5;;;;;;;8.22;100;95144.05;;;;
2019/10/10 05:29:39;;;;;;;5.950001;1.5;;;;;;;8.22;100;95144.05;;;;
2019/10/10 05:30:40;;;;;;;5.950001;1.5;;;;;;;8.22;100;95144.05;;;;
2019/10/10 05:31:41;;;;;;;5.950001;1.5;;;;;;;8.22;100;95144.05;;;;
2019/10/10 05:32:42;;;;;;;5.950001;1.5;;;;;;;8.22;100;95144.05;;;;
2019/10/10 05:33:43;;;;;;;5.950001;1.5;;;;;;;8.22;100;95144.05;;;;
2019/10/10 05:34:44;;;;;;;4;1.6;;;;;;;8.33;100;95147.74;;;;
2019/10/10 05:35:45;;;;;;;4;1.6;;;;;;;8.33;100;95147.74;;;;
2019/10/10 05:36:47;;;;;;;4;1.6;;;;;;;8.33;100;95147.74;;;;
2019/10/10 05:37:48;;;;;;;4;1.6;;;;;;;8.33;100;95147.74;;;;
2019/10/10 05:38:49;;;;;;;4;1.6;;;;;;;8.33;100;95147.74;;;;
2019/10/10 05:39:50;;;;;;;4;1.6;;;;;;;8.33;100;95147.74;;;;
2019/10/10 05:40:51;;;;;;;4;1.6;;;;;;;8.33;100;95147.74;;;;
2019/10/10 05:41:52;;;;;;;4;1.6;;;;;;;8.33;100;95147.74;;;;
2019/10/10 05:42:53;;;;;;;4;1.6;;;;;;;8.33;100;95147.74;;;;
2019/10/10 05:43:54;;;;;;;4;1.6;;;;;;;8.33;100;95147.74;;;;
2019/10/10 05:44:55;;;;;;;2.7;1.5;;;;;;;8.41;100;95150.14;;;;
2019/10/10 05:45:57;;;;;;;2.7;1.5;;;;;;;8.41;100;95150.14;;;;
2019/10/10 05:46:58;;;;;;;2.7;1.5;;;;;;;8.41;100;95150.14;;;;
2019/10/10 05:47:59;;;;;;;2.7;1.5;;;;;;;8.41;100;95150.14;;;;
2019/10/10 05:49:00;;;;;;;2.7;1.5;;;;;;;8.41;100;95150.14;;;;
2019/10/10 05:50:01;;;;;;;2.7;1.5;;;;;;;8.41;100;95150.14;;;;
2019/10/10 05:51:02;;;;;;;2.7;1.5;;;;;;;8.41;100;95150.14;;;;
2019/10/10 05:52:04;;;;;;;2.7;1.5;;;;;;;8.41;100;95150.14;;;;
2019/10/10 05:53:05;;;;;;;2.7;1.5;;;;;;;8.41;100;95150.14;;;;
2019/10/10 05:54:06;;;;;;;2.7;1.5;;;;;;;8.41;100;95150.14;;;;
2019/10/10 05:55:07;;;;;;;2.7;1.5;;;;;;;8.41;100;95150.14;;;;
2019/10/10 05:56:08;;;;;;;1.3;1.2;;;;;;;8.54;100;95163.44;;;;
2019/10/10 05:57:10;;;;;;;1.3;1.2;;;;;;;8.54;100;95163.44;;;;
2019/10/10 05:58:11;;;;;;;1.3;1.2;;;;;;;8.54;100;95163.44;;;;
2019/10/10 05:59:12;;;;;;;1.3;1.2;;;;;;;8.54;100;95163.44;;;;
2019/10/10 06:00:13;;;;;;;1.3;1.2;;;;;;;8.54;100;95163.44;;;;
2019/10/10 06:01:14;;;;;;;1.3;1.2;;;;;;;8.54;100;95163.44;;;;
2019/10/10 06:02:15;;;;;;;1.3;1.2;;;;;;;8.54;100;95163.44;;;;
2019/10/10 06:03:17;;;;;;;1.3;1.2;;;;;;;8.54;100;95163.44;;;;
2019/10/10 06:04:18;;;;;;;1.3;1.2;;;;;;;8.54;100;95163.44;;;;
2019/10/10 06:05:19;;;;;;;1.3;1.2;;;;;;;8.54;100;95163.44;;;;
2019/10/10 06:06:20;;;;;;;2;1.25;;;;;;;8.72;100;95154.92;;;;
2019/10/10 06:07:21;;;;;;;2;1.25;;;;;;;8.72;100;95154.92;;;;
2019/10/10 06:08:22;;;;;;;2;1.25;;;;;;;8.72;100;95154.92;;;;
2019/10/10 06:09:23;;;;;;;2;1.25;;;;;;;8.72;100;95154.92;;;;
2019/10/10 06:10:24;;;;;;;2;1.25;;;;;;;8.72;100;95154.92;;;;
2019/10/10 06:11:42;;;;;;;2;1.25;;;;;;;8.72;100;95154.92;;;;
2019/10/10 06:12:43;;;;;;;2;1.25;;;;;;;8.72;100;95154.92;;;;
2019/10/10 06:13:44;;;;;;;2;1.25;;;;;;;8.72;100;95154.92;;;;
2019/10/10 06:14:45;;;;;;;2;1.25;;;;;;;8.72;100;95154.92;;;;
2019/10/10 06:15:46;;;;;;;2;1.25;;;;;;;8.72;100;95154.92;;;;
2019/10/10 06:16:48;;;;;;;1.45;1.2;;;;;;;8.83;100;95164.89;;;;
2019/10/10 06:17:49;;;;;;;1.45;1.2;;;;;;;8.83;100;95164.89;;;;
2019/10/10 06:18:50;;;;;;;1.45;1.2;;;;;;;8.83;100;95164.89;;;;
2019/10/10 06:19:51;;;;;;;1.45;1.2;;;;;;;8.83;100;95164.89;;;;
2019/10/10 06:20:52;;;;;;;1.45;1.2;;;;;;;8.83;100;95164.89;;;;
2019/10/10 06:21:53;;;;;;;1.45;1.2;;;;;;;8.83;100;95164.89;;;;
2019/10/10 06:22:54;;;;;;;1.45;1.2;;;;;;;8.83;100;95164.89;;;;
2019/10/10 06:23:56;;;;;;;1.45;1.2;;;;;;;8.83;100;95164.89;;;;
2019/10/10 06:24:57;;;;;;;1.45;1.2;;;;;;;8.83;100;95164.89;;;;
2019/10/10 06:25:58;;;;;;;1.45;1.2;;;;;;;8.83;100;95164.89;;;;
2019/10/10 06:26:59;;;;;;;1.45;1.2;;;;;;;8.83;100;95164.89;;;;
2019/10/10 06:28:00;;;;;;;1.7;1.3;;;;;;;9.09;100;95164.12;;;;
2019/10/10 06:29:01;;;;;;;1.7;1.3;;;;;;;9.09;100;95164.12;;;;
2019/10/10 06:30:02;;;;;;;1.7;1.3;;;;;;;9.09;100;95164.12;;;;
2019/10/10 06:31:04;;;;;;;1.7;1.3;;;;;;;9.09;100;95164.12;;;;
2019/10/10 06:32:05;;;;;;;1.7;1.3;;;;;;;9.09;100;95164.12;;;;
2019/10/10 06:33:06;;;;;;;1.7;1.3;;;;;;;9.09;100;95164.12;;;;
2019/10/10 06:34:07;;;;;;;1.7;1.3;;;;;;;9.09;100;95164.12;;;;
2019/10/10 06:35:08;;;;;;;1.7;1.3;;;;;;;9.09;100;95164.12;;;;
2019/10/10 06:36:26;;;;;;;1.7;1.3;;;;;;;9.09;100;95164.12;;;;
2019/10/10 06:37:27;;;;;;;1.7;1.3;;;;;;;9.09;100;95164.12;;;;
2019/10/10 06:38:28;;;;;;;1.6;1.3;;;;;;;9.53;100;95199.21;;;;
2019/10/10 06:39:30;;;;;;;1.6;1.3;;;;;;;9.53;100;95199.21;;;;
2019/10/10 06:40:31;;;;;;;1.6;1.3;;;;;;;9.53;100;95199.21;;;;
2019/10/10 06:41:32;;;;;;;1.6;1.3;;;;;;;9.53;100;95199.21;;;;
2019/10/10 06:42:33;;;;;;;1.6;1.3;;;;;;;9.53;100;95199.21;;;;
2019/10/10 06:43:34;;;;;;;1.6;1.3;;;;;;;9.53;100;95199.21;;;;
2019/10/10 06:44:35;;;;;;;1.6;1.3;;;;;;;9.53;100;95199.21;;;;
2019/10/10 06:45:37;;;;;;;1.6;1.3;;;;;;;9.53;100;95199.21;;;;
2019/10/10 06:46:38;;;;;;;1.6;1.3;;;;;;;9.53;100;95199.21;;;;
2019/10/10 06:47:39;;;;;;;1.6;1.3;;;;;;;9.53;100;95199.21;;;;
2019/10/10 06:48:40;;;;;;;1.35;1.1;;;;;;;9.94;100;95210.77;;;;
2019/10/10 06:49:42;;;;;;;1.35;1.1;;;;;;;9.94;100;95210.77;;;;
2019/10/10 06:50:43;;;;;;;1.35;1.1;;;;;;;9.94;100;95210.77;;;;
2019/10/10 06:51:44;;;;;;;1.35;1.1;;;;;;;9.94;100;95210.77;;;;
2019/10/10 06:52:45;;;;;;;1.35;1.1;;;;;;;9.94;100;95210.77;;;;
2019/10/10 06:53:46;;;;;;;1.35;1.1;;;;;;;9.94;100;95210.77;;;;
2019/10/10 06:54:47;;;;;;;1.35;1.1;;;;;;;9.94;100;95210.77;;;;
2019/10/10 06:55:48;;;;;;;1.35;1.1;;;;;;;9.94;100;95210.77;;;;
2019/10/10 06:56:50;;;;;;;1.35;1.1;;;;;;;9.94;100;95210.77;;;;
2019/10/10 06:57:51;;;;;;;1.35;1.1;;;;;;;9.94;100;95210.77;;;;
2019/10/10 06:58:52;;;;;;;1.35;1.1;;;;;;;9.94;100;95210.77;;;;
2019/10/10 06:59:53;;;;;;;2.1;1.1;;;;;;;10.72;100;95214.01;;;;